Terminal Aerodrome Forecast
Issued by NWS Melbourne, FL

Home | Current Version | Previous Version | Text Only | Print | Product List | Glossary On
Versions: 1 2 3 4 5 6 7 8 9 10 11 12
000
FTUS42 KMLB 051139
TAFVRB
TAF
KVRB 051139Z 0512/0612 17005KT P6SM FEW010 SCT250
      TEMPO 0512/0514 1SM BR BKN010
     FM051500 16011KT P6SM SCT010 BKN025
     FM051800 15014KT P6SM BKN040
     FM060000 16007KT P6SM BKN040
     FM060600 17008KT P6SM SCT003 BKN010=

USA.gov is the U.S. government's official web portal to all federal, state and local government web resources and services.